sensor_id;sensor_type;location;lat;lon;timestamp;P1;durP1;ratioP1;P2;durP2;ratioP2
73893;SDS011;62227;50.534;12.784;2022-07-30T00:00:07;14.07;;;6.10;;
73893;SDS011;62227;50.534;12.784;2022-07-30T00:05:27;15.23;;;5.82;;
73893;SDS011;62227;50.534;12.784;2022-07-30T00:10:47;16.13;;;6.85;;
73893;SDS011;62227;50.534;12.784;2022-07-30T00:16:06;16.95;;;6.68;;
73893;SDS011;62227;50.534;12.784;2022-07-30T00:21:27;15.25;;;6.28;;
73893;SDS011;62227;50.534;12.784;2022-07-30T00:26:46;15.95;;;6.32;;
73893;SDS011;62227;50.534;12.784;2022-07-30T00:32:06;22.00;;;7.70;;
73893;SDS011;62227;50.534;12.784;2022-07-30T00:37:25;17.15;;;7.03;;
73893;SDS011;62227;50.534;12.784;2022-07-30T00:42:45;16.52;;;7.28;;
73893;SDS011;62227;50.534;12.784;2022-07-30T00:48:05;15.82;;;7.28;;
73893;SDS011;62227;50.534;12.784;2022-07-30T00:53:25;12.02;;;6.82;;
73893;SDS011;62227;50.534;12.784;2022-07-30T00:58:44;14.88;;;7.05;;
73893;SDS011;62227;50.534;12.784;2022-07-30T01:04:04;18.38;;;7.57;;
73893;SDS011;62227;50.534;12.784;2022-07-30T01:09:29;20.02;;;8.10;;
73893;SDS011;62227;50.534;12.784;2022-07-30T01:14:49;21.20;;;8.63;;
73893;SDS011;62227;50.534;12.784;2022-07-30T01:20:10;19.08;;;9.27;;
73893;SDS011;62227;50.534;12.784;2022-07-30T01:26:17;20.48;;;9.20;;
73893;SDS011;62227;50.534;12.784;2022-07-30T01:31:19;17.35;;;8.18;;
73893;SDS011;62227;50.534;12.784;2022-07-30T01:36:42;21.45;;;8.55;;
73893;SDS011;62227;50.534;12.784;2022-07-30T01:42:03;33.15;;;10.80;;
73893;SDS011;62227;50.534;12.784;2022-07-30T01:47:27;17.65;;;9.18;;
73893;SDS011;62227;50.534;12.784;2022-07-30T01:52:49;18.48;;;8.10;;
73893;SDS011;62227;50.534;12.784;2022-07-30T01:58:23;16.92;;;8.25;;
73893;SDS011;62227;50.534;12.784;2022-07-30T02:03:45;16.63;;;7.32;;
73893;SDS011;62227;50.534;12.784;2022-07-30T02:09:05;17.52;;;8.18;;
73893;SDS011;62227;50.534;12.784;2022-07-30T02:14:32;20.13;;;8.57;;
73893;SDS011;62227;50.534;12.784;2022-07-30T02:20:04;19.83;;;8.20;;
73893;SDS011;62227;50.534;12.784;2022-07-30T02:25:25;20.98;;;9.05;;
73893;SDS011;62227;50.534;12.784;2022-07-30T02:30:47;14.77;;;7.57;;
73893;SDS011;62227;50.534;12.784;2022-07-30T02:36:12;18.23;;;7.93;;
73893;SDS011;62227;50.534;12.784;2022-07-30T02:41:32;20.00;;;8.48;;
73893;SDS011;62227;50.534;12.784;2022-07-30T02:46:54;22.25;;;8.65;;
73893;SDS011;62227;50.534;12.784;2022-07-30T02:52:15;21.25;;;8.57;;
73893;SDS011;62227;50.534;12.784;2022-07-30T02:57:35;18.90;;;7.80;;
73893;SDS011;62227;50.534;12.784;2022-07-30T03:02:58;19.90;;;8.93;;
73893;SDS011;62227;50.534;12.784;2022-07-30T03:08:18;16.05;;;8.20;;
73893;SDS011;62227;50.534;12.784;2022-07-30T03:13:38;19.33;;;8.73;;
73893;SDS011;62227;50.534;12.784;2022-07-30T03:18:57;15.15;;;7.63;;
73893;SDS011;62227;50.534;12.784;2022-07-30T03:24:20;16.88;;;7.63;;
73893;SDS011;62227;50.534;12.784;2022-07-30T03:29:42;17.33;;;7.88;;
73893;SDS011;62227;50.534;12.784;2022-07-30T03:35:05;17.83;;;8.00;;
73893;SDS011;62227;50.534;12.784;2022-07-30T03:40:26;16.48;;;6.65;;
73893;SDS011;62227;50.534;12.784;2022-07-30T03:45:47;19.00;;;7.70;;
73893;SDS011;62227;50.534;12.784;2022-07-30T03:51:08;13.60;;;6.90;;
73893;SDS011;62227;50.534;12.784;2022-07-30T03:56:28;16.38;;;6.85;;
73893;SDS011;62227;50.534;12.784;2022-07-30T04:01:48;16.92;;;7.10;;
73893;SDS011;62227;50.534;12.784;2022-07-30T04:07:07;15.52;;;6.80;;
73893;SDS011;62227;50.534;12.784;2022-07-30T04:12:27;18.02;;;7.03;;
73893;SDS011;62227;50.534;12.784;2022-07-30T04:17:48;15.07;;;7.60;;
73893;SDS011;62227;50.534;12.784;2022-07-30T04:23:08;11.77;;;6.05;;
73893;SDS011;62227;50.534;12.784;2022-07-30T04:28:29;18.33;;;7.30;;
73893;SDS011;62227;50.534;12.784;2022-07-30T04:33:48;18.42;;;6.55;;
73893;SDS011;62227;50.534;12.784;2022-07-30T04:39:08;15.75;;;6.45;;
73893;SDS011;62227;50.534;12.784;2022-07-30T04:44:27;15.02;;;6.40;;
73893;SDS011;62227;50.534;12.784;2022-07-30T04:49:48;16.80;;;6.53;;
73893;SDS011;62227;50.534;12.784;2022-07-30T04:55:08;11.68;;;6.05;;
73893;SDS011;62227;50.534;12.784;2022-07-30T05:00:29;15.13;;;6.40;;
73893;SDS011;62227;50.534;12.784;2022-07-30T05:05:51;15.13;;;6.82;;
73893;SDS011;62227;50.534;12.784;2022-07-30T05:11:13;15.98;;;6.70;;
73893;SDS011;62227;50.534;12.784;2022-07-30T05:16:32;14.25;;;6.22;;
73893;SDS011;62227;50.534;12.784;2022-07-30T05:21:53;23.42;;;7.75;;
73893;SDS011;62227;50.534;12.784;2022-07-30T05:27:12;16.70;;;7.03;;
73893;SDS011;62227;50.534;12.784;2022-07-30T05:32:32;14.60;;;6.28;;
73893;SDS011;62227;50.534;12.784;2022-07-30T05:37:51;18.52;;;6.75;;
73893;SDS011;62227;50.534;12.784;2022-07-30T05:43:11;16.98;;;7.18;;
73893;SDS011;62227;50.534;12.784;2022-07-30T05:48:31;16.88;;;7.43;;
73893;SDS011;62227;50.534;12.784;2022-07-30T05:53:53;14.27;;;7.00;;
73893;SDS011;62227;50.534;12.784;2022-07-30T05:59:12;18.30;;;8.02;;
73893;SDS011;62227;50.534;12.784;2022-07-30T06:04:32;16.58;;;7.65;;
73893;SDS011;62227;50.534;12.784;2022-07-30T06:09:53;16.92;;;7.65;;
73893;SDS011;62227;50.534;12.784;2022-07-30T06:15:13;19.40;;;8.98;;
73893;SDS011;62227;50.534;12.784;2022-07-30T06:20:32;19.08;;;9.52;;
73893;SDS011;62227;50.534;12.784;2022-07-30T06:25:52;22.45;;;10.63;;
73893;SDS011;62227;50.534;12.784;2022-07-30T06:31:12;20.08;;;10.60;;
73893;SDS011;62227;50.534;12.784;2022-07-30T06:36:31;20.17;;;11.02;;
73893;SDS011;62227;50.534;12.784;2022-07-30T06:41:50;25.17;;;9.07;;
73893;SDS011;62227;50.534;12.784;2022-07-30T06:47:10;24.70;;;10.25;;
73893;SDS011;62227;50.534;12.784;2022-07-30T06:52:29;23.67;;;10.05;;
73893;SDS011;62227;50.534;12.784;2022-07-30T06:57:49;25.30;;;11.70;;
73893;SDS011;62227;50.534;12.784;2022-07-30T07:03:08;21.80;;;10.05;;
73893;SDS011;62227;50.534;12.784;2022-07-30T07:08:28;29.85;;;12.45;;
73893;SDS011;62227;50.534;12.784;2022-07-30T07:13:49;22.42;;;10.65;;
73893;SDS011;62227;50.534;12.784;2022-07-30T07:19:08;19.48;;;9.80;;
73893;SDS011;62227;50.534;12.784;2022-07-30T07:24:27;23.98;;;11.48;;
73893;SDS011;62227;50.534;12.784;2022-07-30T07:29:46;22.17;;;11.80;;
73893;SDS011;62227;50.534;12.784;2022-07-30T07:35:05;20.65;;;9.93;;
73893;SDS011;62227;50.534;12.784;2022-07-30T07:40:26;26.70;;;11.43;;
73893;SDS011;62227;50.534;12.784;2022-07-30T07:45:45;27.95;;;13.02;;
73893;SDS011;62227;50.534;12.784;2022-07-30T07:51:05;25.52;;;10.98;;
73893;SDS011;62227;50.534;12.784;2022-07-30T07:56:24;25.88;;;12.13;;
73893;SDS011;62227;50.534;12.784;2022-07-30T08:01:44;24.20;;;11.20;;
73893;SDS011;62227;50.534;12.784;2022-07-30T08:07:10;26.15;;;11.27;;
73893;SDS011;62227;50.534;12.784;2022-07-30T08:12:29;19.70;;;10.70;;
73893;SDS011;62227;50.534;12.784;2022-07-30T08:17:49;24.77;;;11.40;;
73893;SDS011;62227;50.534;12.784;2022-07-30T08:23:08;24.20;;;11.07;;
73893;SDS011;62227;50.534;12.784;2022-07-30T08:28:27;24.48;;;11.70;;
73893;SDS011;62227;50.534;12.784;2022-07-30T08:33:47;25.33;;;11.05;;
73893;SDS011;62227;50.534;12.784;2022-07-30T08:39:06;20.85;;;11.50;;
73893;SDS011;62227;50.534;12.784;2022-07-30T08:44:26;26.05;;;11.63;;
73893;SDS011;62227;50.534;12.784;2022-07-30T08:49:46;24.27;;;11.60;;
73893;SDS011;62227;50.534;12.784;2022-07-30T08:55:07;25.75;;;12.90;;
73893;SDS011;62227;50.534;12.784;2022-07-30T09:00:27;27.50;;;12.38;;
73893;SDS011;62227;50.534;12.784;2022-07-30T09:05:46;25.70;;;12.00;;
73893;SDS011;62227;50.534;12.784;2022-07-30T09:11:06;25.20;;;12.15;;
73893;SDS011;62227;50.534;12.784;2022-07-30T09:16:26;19.98;;;10.90;;
73893;SDS011;62227;50.534;12.784;2022-07-30T09:21:55;24.80;;;12.10;;
73893;SDS011;62227;50.534;12.784;2022-07-30T09:27:16;22.48;;;8.60;;
73893;SDS011;62227;50.534;12.784;2022-07-30T09:32:48;24.67;;;11.70;;
73893;SDS011;62227;50.534;12.784;2022-07-30T09:38:11;20.00;;;8.13;;
73893;SDS011;62227;50.534;12.784;2022-07-30T09:43:30;18.80;;;10.00;;
73893;SDS011;62227;50.534;12.784;2022-07-30T09:48:49;17.10;;;9.63;;
73893;SDS011;62227;50.534;12.784;2022-07-30T09:54:08;23.45;;;10.68;;
73893;SDS011;62227;50.534;12.784;2022-07-30T09:59:29;24.75;;;10.88;;
73893;SDS011;62227;50.534;12.784;2022-07-30T10:04:49;22.98;;;12.05;;
73893;SDS011;62227;50.534;12.784;2022-07-30T10:10:08;24.83;;;11.85;;
73893;SDS011;62227;50.534;12.784;2022-07-30T10:15:31;25.95;;;13.52;;
73893;SDS011;62227;50.534;12.784;2022-07-30T10:20:52;26.40;;;12.15;;
73893;SDS011;62227;50.534;12.784;2022-07-30T10:26:12;21.20;;;10.82;;
73893;SDS011;62227;50.534;12.784;2022-07-30T10:31:31;23.33;;;8.35;;
73893;SDS011;62227;50.534;12.784;2022-07-30T10:36:51;15.30;;;6.30;;
73893;SDS011;62227;50.534;12.784;2022-07-30T10:48:27;15.75;;;6.72;;
73893;SDS011;62227;50.534;12.784;2022-07-30T10:53:53;11.48;;;4.82;;
73893;SDS011;62227;50.534;12.784;2022-07-30T10:59:12;14.13;;;5.55;;
73893;SDS011;62227;50.534;12.784;2022-07-30T11:04:32;15.15;;;6.00;;
73893;SDS011;62227;50.534;12.784;2022-07-30T11:09:51;15.32;;;6.72;;
73893;SDS011;62227;50.534;12.784;2022-07-30T11:15:13;13.77;;;5.53;;
73893;SDS011;62227;50.534;12.784;2022-07-30T11:20:32;15.00;;;5.80;;
73893;SDS011;62227;50.534;12.784;2022-07-30T11:31:56;32.88;;;9.25;;
73893;SDS011;62227;50.534;12.784;2022-07-30T11:37:15;18.00;;;7.03;;
73893;SDS011;62227;50.534;12.784;2022-07-30T11:42:36;15.60;;;6.57;;
73893;SDS011;62227;50.534;12.784;2022-07-30T11:47:57;15.48;;;6.80;;
73893;SDS011;62227;50.534;12.784;2022-07-30T11:53:18;14.85;;;6.25;;
73893;SDS011;62227;50.534;12.784;2022-07-30T11:58:38;16.23;;;6.03;;
73893;SDS011;62227;50.534;12.784;2022-07-30T12:04:00;16.85;;;6.82;;
73893;SDS011;62227;50.534;12.784;2022-07-30T12:09:24;13.25;;;6.35;;
73893;SDS011;62227;50.534;12.784;2022-07-30T12:14:46;15.77;;;8.70;;
73893;SDS011;62227;50.534;12.784;2022-07-30T12:20:12;18.33;;;7.80;;
73893;SDS011;62227;50.534;12.784;2022-07-30T12:25:36;19.42;;;8.50;;
73893;SDS011;62227;50.534;12.784;2022-07-30T12:31:00;19.02;;;8.27;;
73893;SDS011;62227;50.534;12.784;2022-07-30T12:36:23;21.23;;;8.27;;
73893;SDS011;62227;50.534;12.784;2022-07-30T12:41:46;21.05;;;7.70;;
73893;SDS011;62227;50.534;12.784;2022-07-30T12:47:27;25.48;;;10.70;;
73893;SDS011;62227;50.534;12.784;2022-07-30T12:52:47;24.13;;;10.52;;
73893;SDS011;62227;50.534;12.784;2022-07-30T12:58:08;21.00;;;10.88;;
73893;SDS011;62227;50.534;12.784;2022-07-30T13:03:28;23.83;;;10.95;;
73893;SDS011;62227;50.534;12.784;2022-07-30T13:08:57;25.50;;;9.85;;
73893;SDS011;62227;50.534;12.784;2022-07-30T13:14:18;20.05;;;9.32;;
73893;SDS011;62227;50.534;12.784;2022-07-30T13:19:38;22.77;;;9.77;;
73893;SDS011;62227;50.534;12.784;2022-07-30T13:24:59;21.73;;;11.00;;
73893;SDS011;62227;50.534;12.784;2022-07-30T13:30:34;20.65;;;11.55;;
73893;SDS011;62227;50.534;12.784;2022-07-30T13:35:53;25.60;;;11.32;;
73893;SDS011;62227;50.534;12.784;2022-07-30T13:41:13;21.80;;;10.68;;
73893;SDS011;62227;50.534;12.784;2022-07-30T13:46:34;17.95;;;10.65;;
73893;SDS011;62227;50.534;12.784;2022-07-30T13:51:54;40.53;;;15.68;;
73893;SDS011;62227;50.534;12.784;2022-07-30T13:57:14;20.42;;;9.60;;
73893;SDS011;62227;50.534;12.784;2022-07-30T14:02:33;20.85;;;9.40;;
73893;SDS011;62227;50.534;12.784;2022-07-30T14:07:54;22.73;;;7.95;;
73893;SDS011;62227;50.534;12.784;2022-07-30T14:13:13;19.40;;;9.38;;
73893;SDS011;62227;50.534;12.784;2022-07-30T14:18:32;19.33;;;8.93;;
73893;SDS011;62227;50.534;12.784;2022-07-30T14:23:52;21.05;;;9.20;;
73893;SDS011;62227;50.534;12.784;2022-07-30T14:29:12;19.92;;;8.30;;
73893;SDS011;62227;50.534;12.784;2022-07-30T14:34:31;16.55;;;7.32;;
73893;SDS011;62227;50.534;12.784;2022-07-30T14:39:52;19.27;;;7.65;;
73893;SDS011;62227;50.534;12.784;2022-07-30T14:45:11;22.63;;;7.80;;
73893;SDS011;62227;50.534;12.784;2022-07-30T14:50:30;25.75;;;7.63;;
73893;SDS011;62227;50.534;12.784;2022-07-30T14:55:49;25.95;;;7.80;;
73893;SDS011;62227;50.534;12.784;2022-07-30T15:01:09;21.67;;;8.13;;
73893;SDS011;62227;50.534;12.784;2022-07-30T15:06:28;17.40;;;6.93;;
73893;SDS011;62227;50.534;12.784;2022-07-30T15:11:48;18.30;;;7.55;;
73893;SDS011;62227;50.534;12.784;2022-07-30T15:17:07;13.82;;;5.85;;
73893;SDS011;62227;50.534;12.784;2022-07-30T15:22:27;19.95;;;7.65;;
73893;SDS011;62227;50.534;12.784;2022-07-30T15:27:46;20.52;;;7.40;;
73893;SDS011;62227;50.534;12.784;2022-07-30T15:33:06;21.80;;;8.45;;
73893;SDS011;62227;50.534;12.784;2022-07-30T15:38:43;21.73;;;7.75;;
73893;SDS011;62227;50.534;12.784;2022-07-30T15:44:03;21.40;;;8.52;;
73893;SDS011;62227;50.534;12.784;2022-07-30T15:49:22;19.95;;;8.20;;
73893;SDS011;62227;50.534;12.784;2022-07-30T15:54:43;20.30;;;8.73;;
73893;SDS011;62227;50.534;12.784;2022-07-30T16:00:02;23.08;;;8.95;;
73893;SDS011;62227;50.534;12.784;2022-07-30T16:05:23;21.45;;;9.80;;
73893;SDS011;62227;50.534;12.784;2022-07-30T16:10:41;13.85;;;6.90;;
73893;SDS011;62227;50.534;12.784;2022-07-30T16:16:01;18.92;;;9.07;;
73893;SDS011;62227;50.534;12.784;2022-07-30T16:21:20;19.00;;;9.77;;
73893;SDS011;62227;50.534;12.784;2022-07-30T16:26:41;22.00;;;11.10;;
73893;SDS011;62227;50.534;12.784;2022-07-30T16:32:00;31.75;;;13.32;;
73893;SDS011;62227;50.534;12.784;2022-07-30T16:37:20;21.80;;;11.10;;
73893;SDS011;62227;50.534;12.784;2022-07-30T16:42:42;26.00;;;11.70;;
73893;SDS011;62227;50.534;12.784;2022-07-30T16:48:02;27.23;;;12.40;;
73893;SDS011;62227;50.534;12.784;2022-07-30T16:53:21;23.40;;;12.25;;
73893;SDS011;62227;50.534;12.784;2022-07-30T16:58:41;24.00;;;12.50;;
73893;SDS011;62227;50.534;12.784;2022-07-30T17:04:00;27.48;;;12.43;;
73893;SDS011;62227;50.534;12.784;2022-07-30T17:09:20;21.45;;;12.48;;
73893;SDS011;62227;50.534;12.784;2022-07-30T17:14:39;22.73;;;12.18;;
73893;SDS011;62227;50.534;12.784;2022-07-30T17:20:00;22.17;;;12.43;;
73893;SDS011;62227;50.534;12.784;2022-07-30T17:25:22;27.80;;;12.98;;
73893;SDS011;62227;50.534;12.784;2022-07-30T17:30:45;23.42;;;12.73;;
73893;SDS011;62227;50.534;12.784;2022-07-30T17:36:04;23.10;;;11.57;;
73893;SDS011;62227;50.534;12.784;2022-07-30T17:41:26;22.83;;;13.10;;
73893;SDS011;62227;50.534;12.784;2022-07-30T17:46:45;26.70;;;14.13;;
73893;SDS011;62227;50.534;12.784;2022-07-30T17:52:04;40.38;;;15.85;;
73893;SDS011;62227;50.534;12.784;2022-07-30T17:57:23;25.38;;;12.95;;
73893;SDS011;62227;50.534;12.784;2022-07-30T18:02:43;35.65;;;14.68;;
73893;SDS011;62227;50.534;12.784;2022-07-30T18:08:02;24.50;;;11.45;;
73893;SDS011;62227;50.534;12.784;2022-07-30T18:13:22;21.92;;;13.05;;
73893;SDS011;62227;50.534;12.784;2022-07-30T18:18:41;26.35;;;13.27;;
73893;SDS011;62227;50.534;12.784;2022-07-30T18:24:00;19.60;;;10.95;;
73893;SDS011;62227;50.534;12.784;2022-07-30T18:29:19;21.17;;;11.85;;
73893;SDS011;62227;50.534;12.784;2022-07-30T18:34:38;23.02;;;12.27;;
73893;SDS011;62227;50.534;12.784;2022-07-30T18:39:57;22.70;;;12.35;;
73893;SDS011;62227;50.534;12.784;2022-07-30T18:45:17;22.98;;;11.77;;
73893;SDS011;62227;50.534;12.784;2022-07-30T18:50:36;20.42;;;11.27;;
73893;SDS011;62227;50.534;12.784;2022-07-30T18:55:56;21.95;;;12.63;;
73893;SDS011;62227;50.534;12.784;2022-07-30T19:01:15;21.35;;;12.85;;
73893;SDS011;62227;50.534;12.784;2022-07-30T19:06:38;28.25;;;15.23;;
73893;SDS011;62227;50.534;12.784;2022-07-30T19:11:58;25.38;;;13.75;;
73893;SDS011;62227;50.534;12.784;2022-07-30T19:17:18;23.20;;;13.82;;
73893;SDS011;62227;50.534;12.784;2022-07-30T19:22:38;24.98;;;14.43;;
73893;SDS011;62227;50.534;12.784;2022-07-30T19:27:59;29.17;;;14.55;;
73893;SDS011;62227;50.534;12.784;2022-07-30T19:33:18;23.77;;;12.45;;
73893;SDS011;62227;50.534;12.784;2022-07-30T19:38:38;21.80;;;12.05;;
73893;SDS011;62227;50.534;12.784;2022-07-30T19:43:59;24.88;;;13.60;;
73893;SDS011;62227;50.534;12.784;2022-07-30T19:49:19;28.85;;;12.63;;
73893;SDS011;62227;50.534;12.784;2022-07-30T19:54:38;23.73;;;11.73;;
73893;SDS011;62227;50.534;12.784;2022-07-30T19:59:58;19.95;;;10.82;;
73893;SDS011;62227;50.534;12.784;2022-07-30T20:05:17;24.00;;;12.68;;
73893;SDS011;62227;50.534;12.784;2022-07-30T20:10:38;23.90;;;12.65;;
73893;SDS011;62227;50.534;12.784;2022-07-30T20:15:57;20.70;;;11.63;;
73893;SDS011;62227;50.534;12.784;2022-07-30T20:21:17;23.13;;;12.90;;
73893;SDS011;62227;50.534;12.784;2022-07-30T20:26:36;21.92;;;10.75;;
73893;SDS011;62227;50.534;12.784;2022-07-30T20:31:56;46.67;;;15.68;;
73893;SDS011;62227;50.534;12.784;2022-07-30T20:37:16;37.30;;;14.75;;
73893;SDS011;62227;50.534;12.784;2022-07-30T20:42:36;38.83;;;23.60;;
73893;SDS011;62227;50.534;12.784;2022-07-30T20:47:56;22.88;;;13.30;;
73893;SDS011;62227;50.534;12.784;2022-07-30T20:53:16;23.33;;;12.38;;
73893;SDS011;62227;50.534;12.784;2022-07-30T20:58:35;26.48;;;13.68;;
73893;SDS011;62227;50.534;12.784;2022-07-30T21:03:55;23.23;;;12.63;;
73893;SDS011;62227;50.534;12.784;2022-07-30T21:09:15;26.48;;;12.50;;
73893;SDS011;62227;50.534;12.784;2022-07-30T21:14:34;20.48;;;12.30;;
73893;SDS011;62227;50.534;12.784;2022-07-30T21:19:53;29.40;;;13.82;;
73893;SDS011;62227;50.534;12.784;2022-07-30T21:25:12;24.45;;;12.68;;
73893;SDS011;62227;50.534;12.784;2022-07-30T21:30:31;25.23;;;12.55;;
73893;SDS011;62227;50.534;12.784;2022-07-30T21:41:42;25.10;;;10.80;;
73893;SDS011;62227;50.534;12.784;2022-07-30T21:47:01;23.88;;;11.65;;
73893;SDS011;62227;50.534;12.784;2022-07-30T21:57:39;25.75;;;11.48;;
73893;SDS011;62227;50.534;12.784;2022-07-30T22:02:58;23.75;;;11.52;;
73893;SDS011;62227;50.534;12.784;2022-07-30T22:08:18;23.77;;;11.73;;
73893;SDS011;62227;50.534;12.784;2022-07-30T22:13:37;25.20;;;11.93;;
73893;SDS011;62227;50.534;12.784;2022-07-30T22:18:57;24.33;;;13.38;;
73893;SDS011;62227;50.534;12.784;2022-07-30T22:24:18;19.27;;;10.93;;
73893;SDS011;62227;50.534;12.784;2022-07-30T22:29:37;22.90;;;12.20;;
73893;SDS011;62227;50.534;12.784;2022-07-30T22:34:59;22.23;;;12.40;;
73893;SDS011;62227;50.534;12.784;2022-07-30T22:40:18;25.50;;;12.23;;
73893;SDS011;62227;50.534;12.784;2022-07-30T22:45:37;30.65;;;13.10;;
73893;SDS011;62227;50.534;12.784;2022-07-30T22:50:57;18.40;;;11.70;;
73893;SDS011;62227;50.534;12.784;2022-07-30T22:56:16;16.58;;;10.45;;
73893;SDS011;62227;50.534;12.784;2022-07-30T23:01:38;22.13;;;11.23;;
73893;SDS011;62227;50.534;12.784;2022-07-30T23:06:57;22.63;;;10.40;;
73893;SDS011;62227;50.534;12.784;2022-07-30T23:12:17;20.48;;;10.68;;
73893;SDS011;62227;50.534;12.784;2022-07-30T23:17:37;20.73;;;11.30;;
73893;SDS011;62227;50.534;12.784;2022-07-30T23:22:57;20.45;;;11.32;;
73893;SDS011;62227;50.534;12.784;2022-07-30T23:28:19;21.83;;;10.45;;
73893;SDS011;62227;50.534;12.784;2022-07-30T23:33:38;20.65;;;9.95;;
73893;SDS011;62227;50.534;12.784;2022-07-30T23:38:58;19.67;;;10.57;;
73893;SDS011;62227;50.534;12.784;2022-07-30T23:44:17;20.92;;;10.40;;
73893;SDS011;62227;50.534;12.784;2022-07-30T23:49:36;21.27;;;10.70;;
73893;SDS011;62227;50.534;12.784;2022-07-30T23:54:56;18.52;;;9.20;;
